Terminal Aerodrome Forecast
Issued by NWS

Current Version | Previous Version | Text Only | Print | Product List | Glossary Off
Versions: 1 2 3 4 5 6 7 8 9 10 11 12 13 14 15 16 17 18 19

000
FTUS41 KPBZ 231100
TAFMGW
TAF
KMGW 231140Z 2312/2412 14007KT P6SM -RA OVC100
     FM231600 17010KT P6SM OVC040
     FM240500 15008KT 5SM -SHRA BKN015=

USA.gov is the U.S. government's official web portal to all federal, state and local government web resources and services.